Search for airport 
image banner adimage banner adimage banner ad
image banner ad

KMMH - Mammoth Yosemite

Located in Mammoth Lakes, United States

ICAO - MMH, IATA - MMH

Data provided by Airmate  

General information

Coordinates: N37°37'27" W118°50'20"
Elevation is 7135 feet MSL.
Magnetic variation is 15° East
View others Airports in California

Operational data

Special qualification required
Current time UTC:
Current local time:
Weather
METAR: KMMH 290835Z AUTO 00000KT 10SM SCT120 12/08 A3040 RMK AO2
TAF: KMMH 290520Z 2906/3006 27005KT P6SM SCT140 SCT200 FM291200 VRB05KT P6SM VCSH BKN100 BKN150 FM291800 13007KT P6SM VCTS BKN090CB BKN150 TEMPO 2919/2923 VRB15G30KT -TSRA BKN060CB FM300000 23009KT P6SM VCSH SCT040 BKN150
View NOTAMs / SUP AIP / TFR affecting this airport [VIEW]
Communications frequencies: [VIEW]

Runways:

RWY identifierQFULength (ft)Width (ft)SurfaceLDA (ft)
09109°7000100ASPH7000
27289°7000100ASPH7000

Airport contact information

Address: Mammoth Lakes United States

Satellite view of KMMH